Time;durP1;ratioP1;P1;durP2;ratioP2;P2;SDS_P1;SDS_P2;PMS_P1;PMS_P2;Temp;Humidity;BMP_temperature;BMP_pressure;BME280_temperature;BME280_humidity;BME280_pressure;Samples;Min_cycle;Max_cycle;Signal;HPM_P1;HPM_P2
2022/03/18 00:02:25;;;;;;;11.40;6.53;;;;;;;2.05;76.73;103819.38;4987972;28;20034;-70
2022/03/18 00:04:51;;;;;;;11.82;6.55;;;;;;;2.02;76.70;103821.97;4989773;28;20097;-70
2022/03/18 00:07:18;;;;;;;10.30;6.18;;;;;;;2.00;76.37;103834.03;4989454;28;20030;-70
2022/03/18 00:09:43;;;;;;;13.95;6.85;;;;;;;1.99;77.07;103840.06;4988980;28;20030;-70
2022/03/18 00:12:10;;;;;;;13.10;6.70;;;;;;;1.96;77.16;103837.44;4988333;28;20085;-70
2022/03/18 00:14:35;;;;;;;13.40;6.80;;;;;;;1.94;77.21;103845.22;4970649;28;20464;-70
2022/03/18 00:17:01;;;;;;;13.30;6.82;;;;;;;1.92;76.61;103841.75;4969750;28;20073;-71
2022/03/18 00:19:27;;;;;;;13.38;6.45;;;;;;;1.86;77.00;103846.88;4970874;28;20031;-70
2022/03/18 00:22:00;;;;;;;12.73;6.15;;;;;;;1.78;76.76;103839.00;4970649;28;20037;-70
2022/03/18 00:24:26;;;;;;;14.15;7.32;;;;;;;1.74;76.85;103838.97;4968893;28;20043;-70
2022/03/18 00:26:51;;;;;;;13.75;6.68;;;;;;;1.68;76.69;103844.97;4969451;28;20030;-71
2022/03/18 00:29:17;;;;;;;16.10;7.53;;;;;;;1.64;77.53;103845.78;4971729;28;20022;-70
2022/03/18 00:31:43;;;;;;;16.80;8.05;;;;;;;1.62;77.45;103834.53;4968685;28;20042;-70
2022/03/18 00:34:10;;;;;;;15.95;7.55;;;;;;;1.62;77.42;103833.66;4970650;28;20022;-70
2022/03/18 00:36:36;;;;;;;17.63;7.80;;;;;;;1.59;77.70;103837.06;4974704;28;20053;-70
2022/03/18 00:39:02;;;;;;;14.18;7.63;;;;;;;1.55;77.76;103848.25;4987742;28;20430;-70
2022/03/18 00:41:27;;;;;;;16.67;7.80;;;;;;;1.55;77.31;103837.88;4985432;28;20033;-70
2022/03/18 00:43:53;;;;;;;10.57;6.90;;;;;;;1.51;78.09;103844.75;4988739;28;20050;-70
2022/03/18 00:46:22;;;;;;;14.27;7.68;;;;;;;1.45;78.23;103847.28;4988780;28;20046;-70
2022/03/18 00:54:15;;;;;;;15.70;8.18;;;;;;;1.34;78.23;103863.56;4989123;28;20088;-69
2022/03/18 00:56:41;;;;;;;14.32;7.68;;;;;;;1.30;78.13;103861.78;4987924;28;20454;-70
2022/03/18 00:59:06;;;;;;;15.05;7.78;;;;;;;1.27;78.22;103870.41;4969647;28;20038;-69
2022/03/18 01:01:32;;;;;;;28.27;19.40;;;;;;;1.24;77.81;103865.19;4986200;28;20084;-70
2022/03/18 01:03:58;;;;;;;23.80;15.82;;;;;;;1.22;78.20;103867.75;4988973;28;20029;-69
2022/03/18 01:06:23;;;;;;;20.30;12.27;;;;;;;1.18;77.66;103871.13;4988643;28;20414;-70
2022/03/18 01:08:49;;;;;;;18.25;11.68;;;;;;;1.16;78.15;103880.59;4989069;28;20033;-70
2022/03/18 01:11:14;;;;;;;19.10;10.68;;;;;;;1.12;78.53;103886.59;4987815;28;20022;-70
2022/03/18 01:13:39;;;;;;;15.20;8.85;;;;;;;1.08;78.67;103886.53;4988077;28;20069;-70
2022/03/18 01:16:05;;;;;;;18.83;10.77;;;;;;;1.05;78.61;103884.78;4987780;28;20022;-70
2022/03/18 01:18:30;;;;;;;21.00;11.20;;;;;;;1.00;78.69;103891.63;4987958;28;20097;-71
2022/03/18 01:20:56;;;;;;;17.10;9.40;;;;;;;0.95;79.12;103882.91;4987899;28;20019;-72
2022/03/18 01:23:21;;;;;;;22.02;10.25;;;;;;;0.92;79.14;103891.50;4988821;28;20084;-71
2022/03/18 01:25:46;;;;;;;20.25;10.95;;;;;;;0.89;78.85;103888.00;4986434;28;20080;-71
2022/03/18 01:28:12;;;;;;;19.60;11.43;;;;;;;0.87;79.02;103887.97;4990119;28;20037;-71
2022/03/18 01:30:37;;;;;;;20.55;11.90;;;;;;;0.84;79.33;103882.75;4992326;28;20022;-71
2022/03/18 01:33:02;;;;;;;21.05;12.07;;;;;;;0.82;79.46;103875.81;4991889;28;20062;-71
2022/03/18 01:35:29;;;;;;;20.10;11.25;;;;;;;0.80;79.92;103874.88;4992492;28;20033;-70
2022/03/18 01:37:54;;;;;;;20.85;12.43;;;;;;;0.76;79.54;103875.69;4992813;28;20407;-70
2022/03/18 01:40:20;;;;;;;19.30;11.20;;;;;;;0.75;79.15;103876.53;4992378;28;20071;-70
2022/03/18 01:42:45;;;;;;;18.88;10.90;;;;;;;0.73;79.33;103878.22;4992375;28;20095;-70
2022/03/18 01:45:11;;;;;;;17.88;10.75;;;;;;;0.71;79.51;103877.34;4992855;28;20490;-70
2022/03/18 01:47:42;;;;;;;21.52;10.73;;;;;;;0.70;79.62;103878.19;4974676;28;20034;-69
2022/03/18 01:50:11;;;;;;;23.63;10.18;;;;;;;0.71;79.71;103887.69;4976228;28;20372;-69
2022/03/18 01:52:37;;;;;;;18.80;10.18;;;;;;;0.67;79.75;103883.31;4991290;28;20022;-70
2022/03/18 01:55:03;;;;;;;18.83;10.38;;;;;;;0.65;80.00;103887.59;4991981;28;20026;-70
2022/03/18 01:57:29;;;;;;;16.30;9.73;;;;;;;0.60;79.86;103885.81;4990441;28;20030;-70
2022/03/18 01:59:58;;;;;;;16.73;9.20;;;;;;;0.59;79.82;103886.66;4981083;28;20046;-70
2022/03/18 02:02:24;;;;;;;17.58;9.48;;;;;;;0.56;80.88;103878.84;4990587;28;20541;-70
2022/03/18 02:04:49;;;;;;;19.05;9.13;;;;;;;0.58;80.56;103878.88;4992048;28;20037;-70
2022/03/18 02:07:15;;;;;;;16.00;8.27;;;;;;;0.57;80.76;103882.31;4991865;28;20049;-70
2022/03/18 02:09:41;;;;;;;14.65;8.57;;;;;;;0.54;80.41;103893.47;4991275;28;20030;-70
2022/03/18 02:12:07;;;;;;;14.18;8.32;;;;;;;0.51;81.10;103895.16;4991797;28;20027;-70
2022/03/18 02:14:47;;;;;;;14.98;8.27;;;;;;;0.47;80.72;103895.94;4989335;28;20038;-70
2022/03/18 02:17:17;;;;;;;20.70;8.45;;;;;;;0.44;80.66;103903.66;4980800;28;20018;-70
2022/03/18 02:19:45;;;;;;;15.60;8.15;;;;;;;0.42;80.95;103907.94;4991488;28;20032;-70
2022/03/18 02:22:15;;;;;;;15.20;7.97;;;;;;;0.40;80.89;103902.75;4974735;28;20023;-70
2022/03/18 02:24:45;;;;;;;17.45;8.82;;;;;;;0.39;80.96;103900.97;4972195;28;20050;-70
2022/03/18 02:27:12;;;;;;;17.20;8.60;;;;;;;0.38;81.58;103903.53;4978572;28;20058;-70
2022/03/18 02:29:38;;;;;;;15.82;8.88;;;;;;;0.39;81.97;103898.38;4988959;28;20490;-70
2022/03/18 02:32:05;;;;;;;14.75;8.55;;;;;;;0.40;81.94;103900.16;4991073;28;20058;-70
2022/03/18 02:34:32;;;;;;;12.93;8.68;;;;;;;0.40;81.96;103894.97;4973864;28;20058;-70
2022/03/18 02:36:58;;;;;;;17.60;8.95;;;;;;;0.39;81.86;103895.78;4971004;28;20088;-70
2022/03/18 02:39:23;;;;;;;15.85;8.00;;;;;;;0.37;81.65;103913.03;4970801;28;20034;-69
2022/03/18 02:41:49;;;;;;;17.00;8.80;;;;;;;0.34;81.53;103905.19;4972316;28;20027;-70
2022/03/18 02:44:14;;;;;;;14.32;7.97;;;;;;;0.32;81.57;103909.47;4971483;28;20085;-70
2022/03/18 02:46:40;;;;;;;15.25;8.48;;;;;;;0.28;81.39;103916.31;4971227;28;20033;-70
2022/03/18 02:49:06;;;;;;;15.10;8.10;;;;;;;0.27;81.61;103919.75;4972092;28;20487;-70
2022/03/18 02:51:35;;;;;;;18.25;8.73;;;;;;;0.22;81.19;103917.94;4971910;28;20109;-70
2022/03/18 02:54:04;;;;;;;16.73;8.30;;;;;;;0.21;81.88;103911.00;4987874;28;20026;-70
2022/03/18 02:56:29;;;;;;;14.13;8.68;;;;;;;0.19;81.80;103908.41;4991811;28;20058;-70
2022/03/18 02:58:58;;;;;;;15.68;8.15;;;;;;;0.18;81.07;103911.84;4990077;28;20086;-70
2022/03/18 03:01:23;;;;;;;14.60;8.13;;;;;;;0.14;81.56;103916.94;4991294;28;20018;-70
2022/03/18 03:03:49;;;;;;;13.32;8.65;;;;;;;0.13;81.58;103920.38;4998212;28;20129;-70
2022/03/18 03:08:58;;;;;;;15.20;8.63;;;;;;;0.09;81.33;103926.31;4991336;28;20053;-70
2022/03/18 03:11:24;;;;;;;14.50;8.13;;;;;;;0.08;81.64;103945.28;4990656;28;20030;-70
2022/03/18 03:13:50;;;;;;;13.43;8.13;;;;;;;0.06;81.88;103941.81;4991085;28;20034;-70
2022/03/18 03:16:15;;;;;;;15.13;8.38;;;;;;;0.02;81.80;103940.88;4990761;28;20038;-70
2022/03/18 03:18:41;;;;;;;14.80;8.40;;;;;;;-0.01;81.85;103945.97;4982137;28;20118;-70
2022/03/18 03:21:06;;;;;;;10.68;7.95;;;;;;;-0.04;82.05;103941.59;4995469;28;20036;-70
2022/03/18 03:23:32;;;;;;;14.85;8.15;;;;;;;-0.08;81.46;103942.38;5010131;28;20053;-70
2022/03/18 03:25:57;;;;;;;13.55;8.50;;;;;;;-0.11;82.36;103944.91;5009301;28;20022;-71
2022/03/18 03:28:23;;;;;;;13.43;8.40;;;;;;;-0.14;81.79;103944.84;5002948;28;20022;-71
2022/03/18 03:30:49;;;;;;;12.98;8.45;;;;;;;-0.17;82.03;103946.50;4973050;28;20037;-69
2022/03/18 03:33:15;;;;;;;13.32;8.23;;;;;;;-0.17;82.27;103949.97;4974519;28;20052;-70
2022/03/18 03:35:42;;;;;;;15.10;8.40;;;;;;;-0.17;82.36;103949.97;4990420;28;20444;-70
2022/03/18 03:38:09;;;;;;;17.95;9.13;;;;;;;-0.17;82.48;103943.91;4989920;28;20038;-70
2022/03/18 03:40:36;;;;;;;17.25;8.85;;;;;;;-0.18;82.60;103937.00;4989844;28;20030;-70
2022/03/18 03:43:01;;;;;;;15.13;8.05;;;;;;;-0.19;82.41;103954.22;4988317;28;20030;-70
2022/03/18 03:45:26;;;;;;;14.63;8.32;;;;;;;-0.22;81.82;103963.66;4984273;28;20084;-70
2022/03/18 03:47:52;;;;;;;16.67;8.68;;;;;;;-0.25;82.49;103964.47;4969947;28;20031;-70
2022/03/18 03:50:17;;;;;;;23.17;9.23;;;;;;;-0.25;82.49;103966.19;4983050;28;20026;-70
2022/03/18 03:52:43;;;;;;;15.60;8.32;;;;;;;-0.27;82.93;103968.72;4989881;28;20541;-70
2022/03/18 03:55:10;;;;;;;15.07;8.65;;;;;;;-0.27;82.95;103973.91;4989362;28;20422;-70
2022/03/18 03:57:39;;;;;;;16.85;8.75;;;;;;;-0.27;82.74;103957.50;4990665;28;20123;-70
2022/03/18 04:00:10;;;;;;;13.07;8.48;;;;;;;-0.28;82.76;103974.75;4989535;28;20037;-70
2022/03/18 04:02:39;;;;;;;15.80;9.13;;;;;;;-0.32;82.48;103971.22;4990038;28;20022;-70
2022/03/18 04:05:07;;;;;;;15.40;8.45;;;;;;;-0.36;82.61;103986.66;4989737;28;20050;-69
2022/03/18 04:07:33;;;;;;;15.90;8.73;;;;;;;-0.38;83.00;103990.91;4985597;28;20026;-69
2022/03/18 04:09:59;;;;;;;17.10;9.40;;;;;;;-0.40;82.80;103997.72;4990263;28;20037;-69
2022/03/18 04:12:24;;;;;;;18.05;8.98;;;;;;;-0.40;83.29;103987.38;4979882;28;20022;-69
2022/03/18 04:14:51;;;;;;;15.50;8.95;;;;;;;-0.40;82.91;103995.16;4975561;28;20112;-69
2022/03/18 04:17:17;;;;;;;15.40;9.20;;;;;;;-0.43;82.96;103993.38;4990051;28;20029;-69
2022/03/18 04:19:43;;;;;;;16.35;8.95;;;;;;;-0.45;82.64;104004.53;4990055;28;20022;-69
2022/03/18 04:22:08;;;;;;;15.90;9.13;;;;;;;-0.47;83.42;104001.03;4987990;28;20049;-70
2022/03/18 04:24:34;;;;;;;14.65;8.70;;;;;;;-0.48;82.91;104009.63;4990170;28;20022;-70
2022/03/18 04:27:00;;;;;;;19.63;8.93;;;;;;;-0.51;82.92;103999.22;4990163;28;20217;-70
2022/03/18 04:29:25;;;;;;;14.73;9.48;;;;;;;-0.51;83.16;104009.56;4988049;28;20550;-70
2022/03/18 04:31:51;;;;;;;18.73;9.65;;;;;;;-0.53;83.28;104012.09;4990421;28;20034;-70
2022/03/18 04:34:17;;;;;;;16.85;9.57;;;;;;;-0.54;83.34;104014.66;4989805;28;20385;-71
2022/03/18 04:36:43;;;;;;;17.90;9.27;;;;;;;-0.55;83.55;104012.91;4989086;28;20058;-70
2022/03/18 04:39:08;;;;;;;16.48;8.90;;;;;;;-0.56;83.45;104026.69;4989707;28;20375;-70
2022/03/18 04:41:34;;;;;;;16.00;9.43;;;;;;;-0.56;83.32;104037.03;4990226;28;20026;-70
2022/03/18 04:44:01;;;;;;;18.65;9.50;;;;;;;-0.58;83.62;104025.78;4985144;28;20019;-70
2022/03/18 04:46:28;;;;;;;15.57;8.77;;;;;;;-0.61;83.28;104029.16;4988080;28;20477;-70
2022/03/18 04:48:53;;;;;;;17.15;9.40;;;;;;;-0.62;83.62;104017.06;4973645;28;20117;-70
2022/03/18 04:51:19;;;;;;;13.95;8.98;;;;;;;-0.64;83.73;104019.63;4980889;28;20149;-70
2022/03/18 04:53:44;;;;;;;19.05;9.27;;;;;;;-0.66;83.37;104028.19;4988904;28;20662;-70
2022/03/18 04:57:15;;;;;;;18.80;10.00;;;;;;;-0.69;83.69;104029.00;4987950;28;20382;-69
2022/03/18 04:58:58;;;;;;;17.00;9.88;;;;;;;-0.70;83.68;104034.13;4988576;28;20050;-72
2022/03/18 05:01:23;;;;;;;19.30;10.30;;;;;;;-0.72;84.17;104026.34;4984152;28;20545;-72
2022/03/18 05:03:49;;;;;;;18.98;9.50;;;;;;;-0.72;83.90;104026.34;4988545;28;20026;-69
2022/03/18 05:06:14;;;;;;;18.55;9.68;;;;;;;-0.72;84.33;104036.66;5011166;28;20033;-69
2022/03/18 05:08:40;;;;;;;14.63;9.57;;;;;;;-0.71;83.59;104038.41;5011182;28;20427;-69
2022/03/18 05:11:05;;;;;;;17.10;9.23;;;;;;;-0.72;83.64;104041.84;5011889;28;20030;-69
2022/03/18 05:13:30;;;;;;;16.30;9.82;;;;;;;-0.73;83.63;104050.44;5012057;28;20026;-72
2022/03/18 05:15:56;;;;;;;18.25;9.90;;;;;;;-0.74;83.89;104056.44;4990908;28;20443;-69
2022/03/18 05:18:22;;;;;;;15.73;9.23;;;;;;;-0.77;84.23;104058.97;4992493;28;20026;-70
2022/03/18 05:20:47;;;;;;;17.88;9.45;;;;;;;-0.77;83.82;104066.72;4991481;28;20513;-70
2022/03/18 05:23:14;;;;;;;17.17;9.77;;;;;;;-0.76;84.00;104060.69;4993419;28;20018;-70
2022/03/18 05:25:40;;;;;;;15.20;9.38;;;;;;;-0.77;83.99;104064.13;4992511;28;20394;-70
2022/03/18 05:28:07;;;;;;;13.95;9.32;;;;;;;-0.77;84.04;104063.25;4993197;28;20026;-70
2022/03/18 05:30:33;;;;;;;16.70;10.20;;;;;;;-0.76;84.35;104068.47;4993702;28;20088;-70
2022/03/18 05:32:58;;;;;;;15.13;9.70;;;;;;;-0.76;84.23;104068.47;4983442;28;20417;-70
2022/03/18 05:35:24;;;;;;;14.70;9.30;;;;;;;-0.75;84.19;104059.88;4989811;28;20022;-70
2022/03/18 05:37:49;;;;;;;17.58;9.85;;;;;;;-0.78;84.07;104062.38;4990179;28;20104;-70
2022/03/18 05:40:18;;;;;;;18.52;9.95;;;;;;;-0.77;84.00;104066.72;4974320;28;20395;-70
2022/03/18 05:42:44;;;;;;;15.55;10.07;;;;;;;-0.76;84.23;104060.69;4961474;28;20026;-70
2022/03/18 05:45:09;;;;;;;22.35;11.60;;;;;;;-0.75;84.48;104071.91;4992280;28;20047;-70
2022/03/18 05:47:34;;;;;;;16.75;9.90;;;;;;;-0.73;84.68;104071.13;4996823;28;20029;-70
2022/03/18 05:50:05;;;;;;;18.00;9.65;;;;;;;-0.73;84.42;104065.94;5012011;28;20036;-69
2022/03/18 05:52:35;;;;;;;17.50;10.20;;;;;;;-0.72;84.96;104064.25;4993857;28;20018;-71
2022/03/18 05:55:01;;;;;;;17.60;9.88;;;;;;;-0.69;84.50;104067.78;4982963;28;20039;-71
2022/03/18 05:57:27;;;;;;;22.38;10.23;;;;;;;-0.68;84.49;104064.34;4971477;28;20026;-73
2022/03/18 05:59:56;;;;;;;22.88;10.40;;;;;;;-0.67;85.13;104066.09;4970025;28;20065;-72
2022/03/18 06:02:22;;;;;;;17.13;10.07;;;;;;;-0.66;84.74;104085.94;4994763;28;20034;-72
2022/03/18 06:04:48;;;;;;;16.13;10.00;;;;;;;-0.67;85.27;104091.06;4992004;28;20022;-72
2022/03/18 06:07:14;;;;;;;20.13;10.07;;;;;;;-0.69;85.03;104093.63;4991401;28;20041;-71
2022/03/18 06:12:23;;;;;;;16.02;9.90;;;;;;;-0.67;84.80;104086.78;5011666;28;20032;-71
2022/03/18 06:14:48;;;;;;;15.48;10.00;;;;;;;-0.67;84.56;104097.13;4993042;28;20463;-71
2022/03/18 06:17:14;;;;;;;18.40;9.60;;;;;;;-0.66;85.09;104098.88;4991475;28;20030;-70
2022/03/18 06:19:39;;;;;;;17.27;9.82;;;;;;;-0.65;84.92;104103.19;4972071;28;20257;-70
2022/03/18 06:22:05;;;;;;;20.27;9.82;;;;;;;-0.62;85.24;104105.00;4972057;28;20038;-70
2022/03/18 06:24:31;;;;;;;19.05;11.02;;;;;;;-0.61;85.47;104106.72;4976767;28;20386;-70
2022/03/18 06:26:56;;;;;;;12.98;9.82;;;;;;;-0.60;85.28;104110.19;4990821;28;20471;-69
2022/03/18 06:29:22;;;;;;;18.58;10.15;;;;;;;-0.58;85.04;104126.63;4989439;28;20470;-71
2022/03/18 06:31:49;;;;;;;15.90;10.20;;;;;;;-0.56;85.54;104127.53;4991921;28;20026;-70
2022/03/18 06:34:14;;;;;;;17.40;10.13;;;;;;;-0.55;85.25;104124.97;4992062;28;20343;-70
2022/03/18 06:36:40;;;;;;;19.08;10.52;;;;;;;-0.53;85.25;104119.84;4990749;28;20050;-71
2022/03/18 06:39:06;;;;;;;17.25;10.07;;;;;;;-0.50;85.73;104127.69;4989941;28;20034;-71
2022/03/18 06:41:32;;;;;;;14.98;9.35;;;;;;;-0.49;85.49;104126.84;4972574;28;20105;-71
2022/03/18 06:43:58;;;;;;;16.95;10.25;;;;;;;-0.47;85.64;104130.34;4976872;28;20110;-71
2022/03/18 06:46:24;;;;;;;17.88;10.13;;;;;;;-0.44;85.87;104135.59;4981584;28;20471;-71
2022/03/18 06:48:50;;;;;;;17.10;10.43;;;;;;;-0.42;86.16;104136.50;4991515;28;20041;-71
2022/03/18 06:51:15;;;;;;;22.38;11.25;;;;;;;-0.38;86.13;104140.94;4990778;28;20762;-71
2022/03/18 06:53:41;;;;;;;21.50;10.93;;;;;;;-0.34;86.00;104148.81;4988477;28;20479;-71
2022/03/18 06:56:07;;;;;;;20.35;10.55;;;;;;;-0.28;86.21;104147.22;4989336;28;20030;-69
2022/03/18 06:58:33;;;;;;;24.10;11.23;;;;;;;-0.22;86.68;104145.63;4989004;28;20173;-70
2022/03/18 07:00:59;;;;;;;17.88;11.02;;;;;;;-0.18;86.23;104149.16;4988513;28;20372;-70
2022/03/18 07:03:24;;;;;;;17.92;11.02;;;;;;;-0.11;87.20;104145.88;4988195;28;20152;-69
2022/03/18 07:05:49;;;;;;;22.23;10.65;;;;;;;-0.06;86.63;104152.91;4989578;28;20022;-70
2022/03/18 07:08:15;;;;;;;23.58;12.25;;;;;;;0.02;87.23;104144.47;4988529;28;20566;-70
2022/03/18 07:10:40;;;;;;;20.55;12.07;;;;;;;0.08;86.39;104152.38;4989191;28;20030;-70
2022/03/18 07:13:06;;;;;;;20.05;12.48;;;;;;;0.17;87.25;104150.88;4989590;28;20041;-70
2022/03/18 07:15:31;;;;;;;27.05;13.07;;;;;;;0.26;87.08;104163.13;4989457;28;20137;-70
2022/03/18 07:18:04;;;;;;;23.58;13.80;;;;;;;0.35;87.60;104157.28;4989292;28;20030;-70
2022/03/18 07:20:32;;;;;;;25.15;14.55;;;;;;;0.45;87.95;104149.75;4989922;28;20457;-70
2022/03/18 07:23:14;;;;;;;27.52;15.15;;;;;;;0.57;89.59;104157.78;4989693;28;20109;-69
2022/03/18 07:25:47;;;;;;;28.02;15.45;;;;;;;0.71;89.21;104167.53;4987800;28;20109;-70
2022/03/18 07:28:14;;;;;;;33.90;17.02;;;;;;;0.91;90.76;104167.13;4988847;28;20050;-69
2022/03/18 07:30:42;;;;;;;30.25;15.98;;;;;;;1.03;90.71;104163.88;4988390;28;20030;-69
2022/03/18 07:33:08;;;;;;;31.65;15.85;;;;;;;1.22;91.14;104158.22;4989207;28;20030;-70
2022/03/18 07:35:35;;;;;;;26.40;16.27;;;;;;;1.34;91.46;104162.72;4988809;28;20034;-70
2022/03/18 07:38:07;;;;;;;27.48;16.17;;;;;;;1.57;91.94;104173.50;4989311;28;20046;-71
2022/03/18 07:40:32;;;;;;;25.95;15.15;;;;;;;1.70;91.28;104183.25;4989506;28;20081;-70
2022/03/18 07:42:58;;;;;;;27.63;15.48;;;;;;;1.83;91.47;104180.00;4989511;28;20025;-70
2022/03/18 07:45:28;;;;;;;28.73;14.65;;;;;;;2.02;91.35;104188.09;4989412;28;20128;-71
2022/03/18 07:47:58;;;;;;;23.73;14.45;;;;;;;2.15;90.16;104192.63;4989384;28;20027;-70
2022/03/18 07:50:26;;;;;;;25.95;12.85;;;;;;;2.33;90.48;104198.06;4989763;28;20037;-70
2022/03/18 07:52:54;;;;;;;26.77;13.07;;;;;;;2.54;90.57;104207.03;4988662;28;20034;-70
2022/03/18 07:55:23;;;;;;;25.60;12.02;;;;;;;2.69;89.65;104212.44;4987164;28;20037;-70
2022/03/18 07:57:48;;;;;;;21.17;12.00;;;;;;;2.87;89.50;104204.88;4988803;28;20533;-70
2022/03/18 08:00:16;;;;;;;27.63;12.52;;;;;;;3.06;88.60;104213.75;4988463;28;20038;-70
2022/03/18 08:02:43;;;;;;;25.15;11.60;;;;;;;3.24;88.36;104207.91;4988899;28;20030;-70
2022/03/18 08:05:09;;;;;;;23.65;11.45;;;;;;;3.49;87.50;104203.81;4988286;28;20105;-72
2022/03/18 08:07:35;;;;;;;24.05;11.77;;;;;;;3.63;86.57;104207.44;4988398;28;20105;-70
2022/03/18 08:10:01;;;;;;;22.52;10.90;;;;;;;3.83;86.49;104208.47;4988524;28;20030;-72
2022/03/18 08:12:28;;;;;;;25.75;10.93;;;;;;;4.00;85.65;104206.88;4983587;28;20034;-71
2022/03/18 08:14:55;;;;;;;23.42;9.77;;;;;;;4.15;85.05;104213.91;4984224;28;20102;-71
2022/03/18 08:17:21;;;;;;;23.70;10.23;;;;;;;4.30;84.16;104211.41;4988416;28;20327;-72
2022/03/18 08:19:46;;;;;;;21.85;10.23;;;;;;;4.45;83.24;104218.47;4988750;28;20270;-71
2022/03/18 08:22:11;;;;;;;23.67;9.02;;;;;;;4.57;83.04;104218.53;4986699;28;20045;-71
2022/03/18 08:24:37;;;;;;;20.83;9.40;;;;;;;4.77;82.42;104226.44;4988535;28;20040;-72
2022/03/18 08:27:02;;;;;;;18.00;9.20;;;;;;;4.93;82.30;104212.59;4987241;28;20395;-71
2022/03/18 08:29:27;;;;;;;21.77;9.80;;;;;;;5.08;81.84;104217.00;4988314;28;20034;-71
2022/03/18 08:31:53;;;;;;;17.73;8.65;;;;;;;5.23;80.96;104218.81;4988735;28;20022;-70
2022/03/18 08:34:20;;;;;;;19.52;8.57;;;;;;;5.37;80.63;104219.69;4986945;28;20483;-70
2022/03/18 08:36:45;;;;;;;21.45;9.27;;;;;;;5.55;78.95;104224.94;4987278;28;20559;-70
2022/03/18 08:39:11;;;;;;;16.50;7.93;;;;;;;5.65;79.40;104234.56;4993016;28;20072;-70
2022/03/18 08:41:39;;;;;;;23.17;8.00;;;;;;;5.79;77.94;104228.44;4993138;28;20030;-70
2022/03/18 08:44:04;;;;;;;19.02;7.63;;;;;;;5.94;78.02;104233.69;4992300;28;20383;-72
2022/03/18 08:46:29;;;;;;;17.23;8.15;;;;;;;6.05;76.89;104237.22;4993098;28;20026;-70
2022/03/18 08:48:58;;;;;;;17.77;7.25;;;;;;;6.18;76.74;104240.69;4988395;28;20106;-70
2022/03/18 08:51:24;;;;;;;20.85;7.60;;;;;;;6.34;75.86;104249.34;4991855;28;20402;-70
2022/03/18 08:53:49;;;;;;;18.25;7.97;;;;;;;6.49;75.56;104249.34;4992282;28;20034;-70
2022/03/18 08:56:15;;;;;;;20.17;7.22;;;;;;;6.60;75.08;104252.81;4992581;28;20225;-70
2022/03/18 08:58:40;;;;;;;11.48;6.70;;;;;;;6.77;73.54;104266.69;4991666;28;20038;-72
2022/03/18 09:01:05;;;;;;;15.55;7.28;;;;;;;6.89;73.88;104265.81;4993224;28;20038;-70
2022/03/18 09:03:30;;;;;;;19.33;6.82;;;;;;;7.03;71.20;104263.13;4989752;28;20034;-70
2022/03/18 09:05:56;;;;;;;12.70;6.57;;;;;;;7.14;70.53;104262.19;4993110;28;20058;-71
2022/03/18 09:08:21;;;;;;;14.85;7.07;;;;;;;7.27;69.62;104256.91;4991106;28;20041;-71
2022/03/18 09:10:47;;;;;;;17.00;7.32;;;;;;;7.40;70.25;104269.06;4989163;28;20466;-71
2022/03/18 09:13:12;;;;;;;10.65;5.72;;;;;;;7.54;68.58;104273.31;4990627;28;20098;-71
2022/03/18 09:15:37;;;;;;;11.63;5.78;;;;;;;7.61;66.64;104263.69;4990705;28;20125;-70
2022/03/18 09:18:03;;;;;;;13.00;5.32;;;;;;;7.75;66.79;104272.31;4991485;28;20109;-71
2022/03/18 09:20:28;;;;;;;12.43;4.85;;;;;;;7.85;65.49;104275.75;4992721;28;20433;-71
2022/03/18 09:22:53;;;;;;;11.02;5.07;;;;;;;7.94;66.42;104261.69;4990963;28;20045;-72
2022/03/18 09:25:20;;;;;;;13.20;5.10;;;;;;;8.12;66.76;104272.91;4991380;28;20034;-70
2022/03/18 09:27:45;;;;;;;8.77;5.10;;;;;;;8.25;67.82;104278.03;4990711;28;20022;-70
2022/03/18 09:30:11;;;;;;;9.90;5.32;;;;;;;8.35;64.17;104279.72;4991987;28;20150;-70
2022/03/18 09:32:42;;;;;;;13.55;5.60;;;;;;;8.48;65.83;104282.22;4991376;28;20034;-70
2022/03/18 09:35:12;;;;;;;15.52;5.10;;;;;;;8.58;63.97;104277.75;4991415;28;20113;-70
2022/03/18 09:37:37;;;;;;;11.45;4.13;;;;;;;8.70;62.25;104288.13;4990721;28;20108;-71
2022/03/18 09:40:05;;;;;;;12.02;5.18;;;;;;;8.81;62.61;104295.03;4991533;28;20034;-70
2022/03/18 09:42:31;;;;;;;11.27;5.15;;;;;;;8.92;64.10;104278.25;4991908;28;20045;-71
2022/03/18 09:44:57;;;;;;;14.30;5.07;;;;;;;9.04;62.49;104285.09;4992072;28;20030;-71
2022/03/18 09:47:23;;;;;;;10.77;5.32;;;;;;;9.17;62.59;104284.03;4991837;28;20113;-70
2022/03/18 09:49:48;;;;;;;10.88;4.85;;;;;;;9.29;61.74;104278.66;4991480;28;20025;-71
2022/03/18 09:52:15;;;;;;;12.02;5.07;;;;;;;9.42;60.86;104282.84;4991248;28;20030;-70
2022/03/18 09:54:40;;;;;;;11.23;4.28;;;;;;;9.52;58.85;104288.84;4992090;28;20388;-71
2022/03/18 09:57:06;;;;;;;13.25;4.55;;;;;;;9.65;60.00;104286.91;4992258;28;20029;-71
2022/03/18 09:59:31;;;;;;;8.75;3.70;;;;;;;9.75;58.74;104288.50;4991561;28;20030;-71
2022/03/18 10:02:21;;;;;;;9.40;3.65;;;;;;;9.85;60.60;104284.84;4992040;28;20034;-71
2022/03/18 10:04:59;;;;;;;7.63;3.45;;;;;;;9.98;59.95;104291.63;4991339;28;20062;-71
2022/03/18 10:07:28;;;;;;;10.15;3.38;;;;;;;10.11;55.49;104300.22;4988369;28;20026;-71
2022/03/18 10:10:04;;;;;;;8.75;3.42;;;;;;;10.19;56.55;104294.81;4990588;28;20022;-71
2022/03/18 10:12:35;;;;;;;7.60;3.25;;;;;;;10.28;56.28;104297.31;4991581;28;20038;-71
2022/03/18 10:15:12;;;;;;;6.85;2.95;;;;;;;10.38;56.20;104301.50;4990316;28;20031;-72
2022/03/18 10:17:51;;;;;;;5.68;3.45;;;;;;;10.51;57.56;104304.81;4989801;28;20034;-71
2022/03/18 10:20:32;;;;;;;7.38;2.88;;;;;;;10.59;56.07;104300.28;4990453;28;20049;-70
2022/03/18 10:23:21;;;;;;;8.70;3.28;;;;;;;10.74;56.81;104301.72;4990644;28;20475;-70
2022/03/18 10:25:52;;;;;;;9.70;3.30;;;;;;;10.85;53.85;104307.69;4990910;28;20437;-72
2022/03/18 10:28:36;;;;;;;7.43;3.22;;;;;;;11.00;57.23;104304.72;4990190;28;20026;-70
2022/03/18 10:31:31;;;;;;;6.95;2.92;;;;;;;11.17;58.26;104293.81;4990829;28;20058;-71
2022/03/18 10:37:05;;;;;;;9.30;3.65;;;;;;;11.57;54.09;104294.69;4990404;28;20141;-70
2022/03/18 10:39:33;;;;;;;7.68;3.58;;;;;;;11.77;53.56;104294.25;4991035;28;20034;-71
2022/03/18 10:42:04;;;;;;;8.95;3.22;;;;;;;11.92;54.52;104296.53;4989793;28;20030;-70
2022/03/18 10:45:01;;;;;;;8.85;3.15;;;;;;;12.14;54.32;104293.38;4990900;28;20368;-70
2022/03/18 10:47:38;;;;;;;5.07;2.80;;;;;;;12.24;51.62;104293.09;4990929;28;20034;-70
2022/03/18 10:50:19;;;;;;;6.93;2.83;;;;;;;12.30;52.74;104293.84;4986509;28;20030;-71
2022/03/18 10:52:47;;;;;;;7.53;2.80;;;;;;;12.46;50.27;104288.13;4991012;28;20499;-70
2022/03/18 10:55:20;;;;;;;11.90;2.90;;;;;;;12.55;50.11;104293.16;4990719;28;20034;-70
2022/03/18 10:57:59;;;;;;;5.18;2.85;;;;;;;12.72;51.20;104294.47;4990232;28;20026;-71
2022/03/18 11:00:28;;;;;;;6.75;2.85;;;;;;;12.88;49.77;104293.13;4988830;28;20057;-70
2022/03/18 11:03:00;;;;;;;9.95;2.72;;;;;;;13.07;51.91;104283.75;4989506;28;20026;-72
2022/03/18 11:05:29;;;;;;;8.48;2.70;;;;;;;13.15;47.76;104288.81;4990717;28;20034;-72
2022/03/18 11:07:55;;;;;;;7.82;3.10;;;;;;;13.11;46.51;104287.16;4991012;28;20591;-72
2022/03/18 11:13:07;;;;;;;9.82;3.13;;;;;;;13.21;47.28;104278.09;4990466;28;20053;-72
2022/03/18 11:15:34;;;;;;;5.78;2.58;;;;;;;13.42;47.22;104279.22;4990173;28;20034;-72
2022/03/18 11:18:03;;;;;;;7.38;2.63;;;;;;;13.66;48.98;104277.59;4989024;28;20109;-72
2022/03/18 11:20:32;;;;;;;5.68;2.80;;;;;;;13.85;48.70;104277.84;4988684;28;20026;-72
2022/03/18 11:22:57;;;;;;;5.70;2.65;;;;;;;13.86;45.13;104272.50;4988519;28;20414;-73
2022/03/18 11:25:24;;;;;;;8.95;2.70;;;;;;;13.98;45.63;104277.38;4989104;28;20026;-72
2022/03/18 11:27:51;;;;;;;6.97;2.92;;;;;;;14.17;47.73;104271.47;4989689;28;20091;-72
2022/03/18 11:30:18;;;;;;;12.18;5.07;;;;;;;14.46;46.52;104287.25;4988226;28;20029;-72
2022/03/18 11:32:43;;;;;;;6.65;2.80;;;;;;;14.59;45.58;104285.03;4988964;28;20030;-73
2022/03/18 11:35:09;;;;;;;8.73;2.85;;;;;;;14.77;46.27;104273.75;4989286;28;20022;-72
2022/03/18 11:37:35;;;;;;;8.98;3.08;;;;;;;14.92;44.34;104275.84;4989374;28;20105;-71